Time;durP1;ratioP1;P1;durP2;ratioP2;P2;SDS_P1;SDS_P2;PMS_P1;PMS_P2;Temp;Humidity;BMP_temperature;BMP_pressure;BME280_temperature;BME280_humidity;BME280_pressure;Samples;Min_cycle;Max_cycle;Signal;HPM_P1;HPM_P2
2021/11/23 00:01:13;;;;;;;;;;;;;;;18.19;65.21;100853.19;5050510;28;1973;-42
2021/11/23 00:03:39;;;;;;;;;;;;;;;18.20;66.04;100850.38;5049628;28;1833;-42
2021/11/23 00:06:06;;;;;;;;;;;;;;;18.41;65.34;100853.09;5049511;28;1400;-42
2021/11/23 00:08:32;;;;;;;;;;;;;;;18.34;65.20;100849.22;5045132;28;1615;-42
2021/11/23 00:10:59;;;;;;;;;;;;;;;18.27;65.05;100867.63;5039680;28;1564;-42
2021/11/23 00:13:25;;;;;;;;;;;;;;;18.23;65.51;100870.69;5050314;28;1743;-42
2021/11/23 00:15:53;;;;;;;;;;;;;;;18.20;65.64;100882.50;5042228;28;1342;-42
2021/11/23 00:18:19;;;;;;;;;;;;;;;18.18;65.63;100873.75;5046441;28;1761;-42
2021/11/23 00:20:47;;;;;;;;;;;;;;;18.18;66.08;100887.13;5037806;28;1977;-42
2021/11/23 00:23:14;;;;;;;;;;;;;;;18.17;65.41;100876.56;5049195;28;1513;-42
2021/11/23 00:25:42;;;;;;;;;;;;;;;18.18;64.66;100876.41;5040896;28;1556;-42
2021/11/23 00:28:08;;;;;;;;;;;;;;;18.22;65.11;100868.97;5040515;28;1502;-42
2021/11/23 00:30:35;;;;;;;;;;;;;;;18.40;64.88;100867.47;5040713;28;1515;-42
2021/11/23 00:33:03;;;;;;;;;;;;;;;18.38;64.71;100879.25;5043770;28;1933;-42
2021/11/23 00:35:29;;;;;;;;;;;;;;;18.28;64.47;100874.69;5043161;28;1728;-42
2021/11/23 00:37:56;;;;;;;;;;;;;;;18.23;65.21;100874.22;5048342;28;1602;-42
2021/11/23 00:40:24;;;;;;;;;;;;;;;18.17;65.53;100871.22;5047959;28;1926;-42
2021/11/23 00:42:50;;;;;;;;;;;;;;;18.16;65.43;100865.00;5044921;28;1588;-42
2021/11/23 00:45:18;;;;;;;;;;;;;;;18.15;64.97;100892.75;5041285;28;1987;-42
2021/11/23 00:47:45;;;;;;;;;;;;;;;18.13;65.11;100878.63;5048646;28;1475;-42
2021/11/23 00:50:14;;;;;;;;;;;;;;;18.15;64.54;100899.94;5040778;28;1700;-42
2021/11/23 00:52:41;;;;;;;;;;;;;;;18.16;64.91;100896.25;5041763;28;1647;-42
2021/11/23 00:55:08;;;;;;;;;;;;;;;18.19;64.51;100899.53;5047171;28;1467;-42
2021/11/23 00:57:34;;;;;;;;;;;;;;;18.31;64.51;100902.19;5039747;28;1570;-42
2021/11/23 01:00:01;;;;;;;;;;;;;;;18.44;63.88;100886.78;5040147;28;1887;-42
2021/11/23 01:02:27;;;;;;;;;;;;;;;18.34;64.39;100909.94;5047557;28;1794;-42
2021/11/23 01:04:54;;;;;;;;;;;;;;;18.26;63.94;100899.88;5040966;28;1873;-42
2021/11/23 01:07:22;;;;;;;;;;;;;;;18.20;64.30;100890.53;5048849;28;1616;-42
2021/11/23 01:09:48;;;;;;;;;;;;;;;18.18;65.35;100903.19;5041429;28;1996;-42
2021/11/23 01:12:15;;;;;;;;;;;;;;;18.19;65.12;100912.94;5043002;28;1436;-42
2021/11/23 01:14:41;;;;;;;;;;;;;;;18.16;64.75;100907.81;5039772;28;1803;-41
2021/11/23 01:17:08;;;;;;;;;;;;;;;18.13;64.77;100900.06;5044395;28;1796;-42
2021/11/23 01:19:34;;;;;;;;;;;;;;;18.12;64.72;100911.72;5046759;28;1552;-41
2021/11/23 01:22:01;;;;;;;;;;;;;;;18.13;64.26;100897.38;5051448;28;1906;-42
2021/11/23 01:24:29;;;;;;;;;;;;;;;18.33;64.05;100908.25;5045663;28;1749;-42
2021/11/23 01:26:55;;;;;;;;;;;;;;;18.37;64.17;100893.63;5045673;28;1812;-42
2021/11/23 01:29:21;;;;;;;;;;;;;;;18.27;64.66;100905.09;5042273;28;1651;-42
2021/11/23 01:31:48;;;;;;;;;;;;;;;18.23;64.25;100909.00;5048415;28;1677;-42
2021/11/23 01:34:16;;;;;;;;;;;;;;;18.17;64.71;100904.16;5041568;28;1529;-42
2021/11/23 01:36:43;;;;;;;;;;;;;;;18.14;64.43;100896.38;5043749;28;1636;-42
2021/11/23 01:39:09;;;;;;;;;;;;;;;18.12;64.85;100892.97;5045099;28;1977;-42
2021/11/23 01:41:37;;;;;;;;;;;;;;;18.12;64.23;100886.78;5048108;28;1977;-41
2021/11/23 01:44:03;;;;;;;;;;;;;;;18.11;63.86;100899.31;5042835;28;1670;-42
2021/11/23 01:46:30;;;;;;;;;;;;;;;18.13;63.91;100900.06;5039866;28;1446;-42
2021/11/23 01:48:57;;;;;;;;;;;;;;;18.22;64.01;100901.97;5038997;28;1526;-42
2021/11/23 01:51:24;;;;;;;;;;;;;;;18.31;64.41;100889.66;5050022;28;1685;-42
2021/11/23 01:53:50;;;;;;;;;;;;;;;18.28;64.44;100903.28;5043417;28;1836;-42
2021/11/23 01:56:17;;;;;;;;;;;;;;;18.21;64.09;100910.97;5044067;28;1653;-42
2021/11/23 01:58:44;;;;;;;;;;;;;;;18.15;64.57;100916.00;5051012;28;1434;-42
2021/11/23 02:01:11;;;;;;;;;;;;;;;18.14;64.54;100915.13;5046754;28;1910;-42
2021/11/23 02:03:38;;;;;;;;;;;;;;;18.11;64.46;100928.78;5045316;28;1750;-41
2021/11/23 02:06:05;;;;;;;;;;;;;;;18.11;64.21;100934.13;5053146;28;1616;-42
2021/11/23 02:08:32;;;;;;;;;;;;;;;18.10;63.14;100929.72;5049903;28;1730;-42
2021/11/23 02:10:59;;;;;;;;;;;;;;;18.12;64.08;100922.41;5048374;28;1670;-42
2021/11/23 02:13:28;;;;;;;;;;;;;;;18.37;63.34;100937.31;5050324;28;1520;-42
2021/11/23 02:15:57;;;;;;;;;;;;;;;18.32;63.60;100938.69;5043045;28;1714;-42
2021/11/23 02:18:23;;;;;;;;;;;;;;;18.20;63.75;100935.19;5040782;28;1982;-42
2021/11/23 02:20:51;;;;;;;;;;;;;;;18.15;64.02;100943.59;5053771;28;1975;-42
2021/11/23 02:23:18;;;;;;;;;;;;;;;18.10;64.18;100940.44;5049323;28;1567;-41
2021/11/23 02:25:45;;;;;;;;;;;;;;;18.08;63.98;100943.25;5050193;28;1715;-43
2021/11/23 02:28:12;;;;;;;;;;;;;;;18.07;64.55;100956.75;5048098;28;1976;-42
2021/11/23 02:30:42;;;;;;;;;;;;;;;18.12;63.63;100935.81;5050641;28;1492;-42
2021/11/23 02:33:08;;;;;;;;;;;;;;;18.30;63.30;100944.16;5042540;28;1401;-42
2021/11/23 02:35:35;;;;;;;;;;;;;;;18.29;63.61;100937.94;5054820;28;1378;-42
2021/11/23 02:38:03;;;;;;;;;;;;;;;18.24;63.71;100942.84;5052077;28;1660;-42
2021/11/23 02:40:30;;;;;;;;;;;;;;;18.18;63.39;100943.31;5042231;28;1898;-42
2021/11/23 02:42:57;;;;;;;;;;;;;;;18.12;64.07;100935.81;5047480;28;1778;-42
2021/11/23 02:45:24;;;;;;;;;;;;;;;18.10;64.16;100940.44;5046661;28;1418;-42
2021/11/23 02:47:52;;;;;;;;;;;;;;;18.06;63.49;100944.34;5043310;28;1612;-41
2021/11/23 02:50:18;;;;;;;;;;;;;;;18.12;62.91;100948.34;5051398;28;1645;-42
2021/11/23 02:52:45;;;;;;;;;;;;;;;18.18;63.30;100958.53;5052493;28;1783;-41
2021/11/23 02:55:13;;;;;;;;;;;;;;;18.34;63.88;100968.84;5040495;28;2017;-42
2021/11/23 02:57:40;;;;;;;;;;;;;;;18.29;62.71;100961.19;5048621;28;1565;-42
2021/11/23 03:02:55;;;;;;;;;;;;;;;18.11;63.37;100950.19;5081043;23;1913;-42
2021/11/23 03:05:25;;;;;;;;;;;;;;;18.12;63.61;100967.06;5063213;28;1476;-42
2021/11/23 03:07:54;;;;;;;;;;;;;;;18.04;63.62;100944.44;5060284;28;1628;-43
2021/11/23 03:10:29;;;;;;;;;;;;;;;18.11;62.50;100955.53;5061960;28;1862;-42
2021/11/23 03:13:00;;;;;;;;;;;;;;;18.18;63.23;100959.38;5057038;28;1368;-42
2021/11/23 03:15:33;;;;;;;;;;;;;;;18.34;62.36;100956.31;5061491;28;1798;-43
2021/11/23 03:18:00;;;;;;;;;;;;;;;18.27;63.00;100963.16;5058945;28;1065;-42
2021/11/23 03:20:30;;;;;;;;;;;;;;;18.16;63.30;100965.84;5067002;28;1558;-43
2021/11/23 03:22:58;;;;;;;;;;;;;;;18.09;63.45;100969.03;5069409;28;1643;-42
2021/11/23 03:25:33;;;;;;;;;;;;;;;18.06;63.87;100973.78;5069453;28;1468;-42
2021/11/23 03:28:01;;;;;;;;;;;;;;;18.06;63.92;100982.69;5062103;28;1425;-43
2021/11/23 03:30:36;;;;;;;;;;;;;;;18.09;63.58;100968.19;5067080;28;1873;-42
2021/11/23 03:33:24;;;;;;;;;;;;;;;18.27;62.66;100990.78;5054820;28;1690;-42
2021/11/23 03:35:52;;;;;;;;;;;;;;;18.29;62.48;100988.81;5064154;28;1827;-42
2021/11/23 03:38:21;;;;;;;;;;;;;;;18.20;62.94;100989.56;5071966;28;1842;-42
2021/11/23 03:40:49;;;;;;;;;;;;;;;18.13;63.25;100991.03;5065421;28;1909;-42
2021/11/23 03:43:17;;;;;;;;;;;;;;;18.11;63.25;100968.06;5063213;28;1709;-42
2021/11/23 03:45:44;;;;;;;;;;;;;;;18.08;62.98;100982.53;5070062;28;1861;-42
2021/11/23 03:48:14;;;;;;;;;;;;;;;18.04;63.47;100981.06;5067563;28;1475;-42
2021/11/23 03:50:41;;;;;;;;;;;;;;;18.06;62.73;100988.03;5070671;28;1773;-42
2021/11/23 03:53:16;;;;;;;;;;;;;;;18.31;62.05;100985.19;5057992;28;1704;-42
2021/11/23 03:55:50;;;;;;;;;;;;;;;18.28;62.69;100992.50;5062435;28;1538;-42
2021/11/23 03:58:20;;;;;;;;;;;;;;;18.17;63.03;100984.47;5065352;28;1846;-43
2021/11/23 04:00:48;;;;;;;;;;;;;;;18.14;63.53;100984.69;5068276;28;2262;-43
2021/11/23 04:03:15;;;;;;;;;;;;;;;18.14;63.28;101006.13;5060443;28;1952;-42
2021/11/23 04:05:42;;;;;;;;;;;;;;;18.10;63.36;100996.63;5061759;28;1576;-42
2021/11/23 04:08:08;;;;;;;;;;;;;;;18.10;63.58;100991.28;5070069;28;1765;-42
2021/11/23 04:10:35;;;;;;;;;;;;;;;18.35;62.95;100991.97;5066340;28;1871;-42
2021/11/23 04:13:02;;;;;;;;;;;;;;;18.24;63.61;100995.50;5067834;28;1750;-43
2021/11/23 04:15:35;;;;;;;;;;;;;;;18.12;63.90;101008.06;5070388;28;1403;-42
2021/11/23 04:18:02;;;;;;;;;;;;;;;18.05;64.16;101005.03;5062997;28;1704;-42
2021/11/23 04:20:29;;;;;;;;;;;;;;;18.07;64.23;101005.78;5068097;28;1825;-42
2021/11/23 04:22:55;;;;;;;;;;;;;;;18.10;64.11;100999.31;5068704;28;1910;-43
2021/11/23 04:25:23;;;;;;;;;;;;;;;18.27;63.75;100998.81;5061863;28;1463;-42
2021/11/23 04:27:51;;;;;;;;;;;;;;;18.13;63.93;100996.41;5061666;28;1517;-42
2021/11/23 04:30:19;;;;;;;;;;;;;;;18.11;64.89;101011.72;5069749;28;1439;-42
2021/11/23 04:32:51;;;;;;;;;;;;;;;18.05;64.55;100996.16;5055268;28;1622;-42
2021/11/23 04:35:21;;;;;;;;;;;;;;;18.02;64.80;100993.72;5064897;28;1420;-42
2021/11/23 04:37:52;;;;;;;;;;;;;;;18.10;64.41;100993.97;5069349;28;1650;-42
2021/11/23 04:40:19;;;;;;;;;;;;;;;18.23;63.96;100989.31;5066014;28;1572;-42
2021/11/23 04:42:48;;;;;;;;;;;;;;;18.12;64.74;100997.34;5071757;28;1978;-42
2021/11/23 04:45:36;;;;;;;;;;;;;;;18.06;64.67;101019.25;5068243;28;1680;-43
2021/11/23 04:48:16;;;;;;;;;;;;;;;17.98;64.87;101006.50;5066847;28;1847;-42
2021/11/23 04:50:43;;;;;;;;;;;;;;;18.00;65.10;101020.59;5064552;28;1733;-42
2021/11/23 04:53:11;;;;;;;;;;;;;;;18.16;64.69;101017.53;5067761;28;1636;-42
2021/11/23 04:55:41;;;;;;;;;;;;;;;18.16;65.12;101022.91;5062008;28;1787;-43
2021/11/23 04:58:08;;;;;;;;;;;;;;;18.06;65.40;101019.25;5064065;28;1536;-42
2021/11/23 05:00:35;;;;;;;;;;;;;;;18.00;65.37;101027.78;5065551;28;1798;-42
2021/11/23 05:03:11;;;;;;;;;;;;;;;17.97;65.47;101025.38;5068627;28;1906;-42
2021/11/23 05:05:53;;;;;;;;;;;;;;;17.95;65.55;101033.50;5071831;28;1758;-42
2021/11/23 05:08:21;;;;;;;;;;;;;;;18.17;64.51;101027.28;5068769;28;2810;-44
2021/11/23 05:11:02;;;;;;;;;;;;;;;18.26;64.82;101044.44;5063526;28;1375;-43
2021/11/23 05:13:32;;;;;;;;;;;;;;;18.11;64.86;101045.69;5067737;28;1791;-42
2021/11/23 05:16:00;;;;;;;;;;;;;;;18.05;65.09;101041.66;5067339;28;1836;-42
2021/11/23 05:18:29;;;;;;;;;;;;;;;18.02;65.22;101055.28;5051970;28;1666;-43
2021/11/23 05:21:08;;;;;;;;;;;;;;;18.01;65.63;101043.72;5068762;28;1817;-42
2021/11/23 05:23:42;;;;;;;;;;;;;;;18.10;65.44;101042.13;5056481;28;1888;-43
2021/11/23 05:26:09;;;;;;;;;;;;;;;18.19;65.59;101038.72;5062066;28;1517;-42
2021/11/23 05:28:35;;;;;;;;;;;;;;;18.16;64.93;101048.81;5066395;28;1653;-42
2021/11/23 05:31:05;;;;;;;;;;;;;;;18.13;65.54;101062.47;5065867;28;1937;-42
2021/11/23 05:33:32;;;;;;;;;;;;;;;18.05;65.60;101052.38;5063889;28;1847;-44
2021/11/23 05:35:59;;;;;;;;;;;;;;;18.06;65.62;101067.44;5064372;28;1664;-42
2021/11/23 05:38:27;;;;;;;;;;;;;;;18.05;65.68;101068.44;4960506;28;11651;-42
2021/11/23 05:41:02;;;;;;;;;;;;;;;18.23;64.78;101061.59;5047966;28;1773;-42
2021/11/23 05:43:31;;;;;;;;;;;;;;;18.26;65.72;101069.41;5059743;28;1961;-42
2021/11/23 05:45:58;;;;;;;;;;;;;;;18.19;65.75;101086.91;5066985;28;1714;-42
2021/11/23 05:48:28;;;;;;;;;;;;;;;18.12;65.85;101083.00;5064414;28;1812;-43
2021/11/23 05:51:02;;;;;;;;;;;;;;;18.12;66.18;101090.19;5066194;28;1696;-42
2021/11/23 05:53:29;;;;;;;;;;;;;;;18.06;65.98;101089.72;5066121;28;2279;-42
2021/11/23 05:55:59;;;;;;;;;;;;;;;18.14;66.04;101099.78;5061873;28;1547;-44
2021/11/23 05:58:30;;;;;;;;;;;;;;;18.27;65.27;101105.88;5065547;28;1653;-42
2021/11/23 06:00:58;;;;;;;;;;;;;;;18.21;65.93;101109.06;5062589;28;1395;-42
2021/11/23 06:03:34;;;;;;;;;;;;;;;18.11;65.86;101113.44;5064623;28;1906;-43
2021/11/23 06:06:01;;;;;;;;;;;;;;;18.13;65.61;101110.66;5071200;28;1439;-42
2021/11/23 06:08:35;;;;;;;;;;;;;;;18.05;65.82;101121.94;5064519;28;1506;-42
2021/11/23 06:11:06;;;;;;;;;;;;;;;18.01;65.58;101131.19;5063153;28;1768;-42
2021/11/23 06:13:40;;;;;;;;;;;;;;;17.99;66.14;101136.66;5060313;28;1586;-42
2021/11/23 06:16:10;;;;;;;;;;;;;;;18.00;66.05;101138.34;5061538;28;2070;-42
2021/11/23 06:18:36;;;;;;;;;;;;;;;17.98;66.21;101148.31;5062538;28;1717;-42
2021/11/23 06:21:11;;;;;;;;;;;;;;;17.97;66.38;101143.94;5068535;28;1790;-42
2021/11/23 06:23:39;;;;;;;;;;;;;;;17.91;66.28;101140.91;5064621;28;1991;-41
2021/11/23 06:26:13;;;;;;;;;;;;;;;17.93;66.25;101139.81;5060331;28;1734;-42
2021/11/23 06:28:39;;;;;;;;;;;;;;;18.01;66.15;101144.56;5063794;28;1676;-42
2021/11/23 06:31:06;;;;;;;;;;;;;;;18.19;65.54;101145.78;5067288;28;1537;-42
2021/11/23 06:33:33;;;;;;;;;;;;;;;18.47;64.77;101146.28;5068515;28;1640;-42
2021/11/23 06:36:00;;;;;;;;;;;;;;;18.54;65.25;101141.28;5065852;28;1635;-43
2021/11/23 06:38:28;;;;;;;;;;;;;;;18.54;65.38;101142.13;5063610;28;1554;-42
2021/11/23 06:40:58;;;;;;;;;;;;;;;18.49;65.69;101142.50;5058264;28;1604;-42
2021/11/23 06:43:26;;;;;;;;;;;;;;;18.47;64.86;101152.47;5063040;28;1902;-42
2021/11/23 06:45:55;;;;;;;;;;;;;;;18.56;65.48;101158.94;5063689;28;1789;-42
2021/11/23 06:48:21;;;;;;;;;;;;;;;18.63;66.30;101165.50;5054501;28;2043;-41
2021/11/23 06:50:53;;;;;;;;;;;;;;;18.58;66.43;101153.44;5075087;28;1808;-41
2021/11/23 06:53:21;;;;;;;;;;;;;;;18.68;65.71;101170.47;5069094;28;1741;-41
2021/11/23 06:55:47;;;;;;;;;;;;;;;18.65;66.79;101160.88;5066851;28;1825;-41
2021/11/23 06:58:15;;;;;;;;;;;;;;;18.68;66.10;101160.63;5071551;28;1692;-42
2021/11/23 07:00:47;;;;;;;;;;;;;;;18.76;66.28;101169.84;5070186;28;1719;-43
2021/11/23 07:03:14;;;;;;;;;;;;;;;18.81;66.03;101173.91;5067325;28;1976;-43
2021/11/23 07:05:40;;;;;;;;;;;;;;;18.85;66.31;101163.78;5061177;28;1758;-42
2021/11/23 07:08:08;;;;;;;;;;;;;;;18.92;65.33;101165.00;5069941;28;1926;-43
2021/11/23 07:10:36;;;;;;;;;;;;;;;19.00;65.89;101191.16;5067466;28;1540;-43
2021/11/23 07:13:26;;;;;;;;;;;;;;;18.88;66.11;101174.28;5071925;28;1782;-43
2021/11/23 07:16:01;;;;;;;;;;;;;;;19.08;65.32;101170.81;5071000;28;1810;-42
2021/11/23 07:18:29;;;;;;;;;;;;;;;19.01;65.71;101199.09;5073257;28;1849;-42
2021/11/23 07:21:14;;;;;;;;;;;;;;;19.10;65.60;101172.50;5066307;28;1792;-42
2021/11/23 07:23:40;;;;;;;;;;;;;;;19.24;64.69;101191.00;5068260;28;2294;-42
2021/11/23 07:26:10;;;;;;;;;;;;;;;19.22;65.40;101190.28;5072269;28;1724;-42
2021/11/23 07:28:40;;;;;;;;;;;;;;;19.20;64.99;101193.06;5058755;28;1826;-43
2021/11/23 07:31:10;;;;;;;;;;;;;;;19.18;65.52;101207.56;5072605;28;1791;-42
2021/11/23 07:33:48;;;;;;;;;;;;;;;19.14;65.18;101198.06;5069101;28;1858;-42
2021/11/23 07:36:20;;;;;;;;;;;;;;;19.03;65.74;101197.13;5070748;28;1703;-43
2021/11/23 07:38:47;;;;;;;;;;;;;;;19.07;65.48;101195.91;5066703;28;1915;-43
2021/11/23 07:41:14;;;;;;;;;;;;;;;19.08;65.20;101202.13;5057253;28;1798;-42
2021/11/23 07:43:44;;;;;;;;;;;;;;;19.04;64.98;101201.53;5065193;28;1992;-43
2021/11/23 07:46:21;;;;;;;;;;;;;;;19.01;65.30;101204.44;5056857;28;1751;-42
2021/11/23 07:48:50;;;;;;;;;;;;;;;19.00;66.08;101196.53;5071390;28;1621;-42
2021/11/23 07:51:17;;;;;;;;;;;;;;;19.01;65.21;101209.81;5074055;28;1819;-42
2021/11/23 07:53:54;;;;;;;;;;;;;;;19.08;65.32;101208.34;5065421;28;1722;-42
2021/11/23 07:56:25;;;;;;;;;;;;;;;19.16;65.29;101220.25;5062059;28;1677;-42
2021/11/23 07:58:51;;;;;;;;;;;;;;;19.20;65.08;101222.56;5064460;28;1654;-43
2021/11/23 08:01:23;;;;;;;;;;;;;;;19.20;65.54;101244.03;5065459;28;1615;-42
2021/11/23 08:03:49;;;;;;;;;;;;;;;19.12;64.92;101237.56;5057131;28;1993;-42
2021/11/23 08:06:23;;;;;;;;;;;;;;;19.11;65.17;101243.91;5073621;28;1400;-42
2021/11/23 08:08:52;;;;;;;;;;;;;;;19.27;65.37;101247.03;5057992;28;1740;-43
2021/11/23 08:11:20;;;;;;;;;;;;;;;19.11;66.24;101260.00;5067820;28;1533;-42
2021/11/23 08:13:46;;;;;;;;;;;;;;;19.01;66.41;101238.44;5064722;28;1568;-42
2021/11/23 08:16:13;;;;;;;;;;;;;;;19.07;66.03;101257.56;5061489;28;1692;-42
2021/11/23 08:18:48;;;;;;;;;;;;;;;19.02;65.47;101254.41;5056744;28;1703;-42
2021/11/23 08:21:14;;;;;;;;;;;;;;;19.05;65.69;101262.19;5068187;28;1740;-42
2021/11/23 08:23:41;;;;;;;;;;;;;;;18.99;66.54;101254.63;5068807;28;1981;-42
2021/11/23 08:26:10;;;;;;;;;;;;;;;18.99;65.60;101270.72;5067069;28;1562;-42
2021/11/23 08:28:50;;;;;;;;;;;;;;;19.04;66.38;101276.59;5067013;28;1754;-42
2021/11/23 08:31:19;;;;;;;;;;;;;;;19.01;66.40;101279.50;5068587;28;1888;-43
2021/11/23 08:33:50;;;;;;;;;;;;;;;19.07;65.42;101295.09;5068337;28;1726;-42
2021/11/23 08:36:20;;;;;;;;;;;;;;;19.08;66.40;101307.53;5072535;28;1720;-42
2021/11/23 08:38:47;;;;;;;;;;;;;;;19.05;65.26;101297.03;5063586;28;1793;-42
2021/11/23 08:41:15;;;;;;;;;;;;;;;19.01;65.60;101297.41;5065250;28;1737;-43
2021/11/23 08:43:44;;;;;;;;;;;;;;;19.04;65.58;101310.59;5065579;28;1909;-42
2021/11/23 08:46:14;;;;;;;;;;;;;;;19.04;65.84;101311.44;5069331;28;1662;-42
2021/11/23 08:48:40;;;;;;;;;;;;;;;19.04;66.49;101303.38;5068777;28;1760;-42
2021/11/23 08:51:17;;;;;;;;;;;;;;;19.05;66.60;101320.31;5058281;28;1315;-42
2021/11/23 08:53:52;;;;;;;;;;;;;;;19.02;65.51;101329.47;5067266;28;1723;-42
2021/11/23 08:56:22;;;;;;;;;;;;;;;19.03;65.49;101320.44;5060699;28;2056;-42
2021/11/23 08:58:53;;;;;;;;;;;;;;;19.08;66.14;101331.66;5066353;28;1925;-42
2021/11/23 09:01:24;;;;;;;;;;;;;;;19.05;66.48;101331.88;5047952;28;1674;-42
2021/11/23 09:03:55;;;;;;;;;;;;;;;19.05;65.37;101333.72;5056380;28;1991;-42
2021/11/23 09:06:26;;;;;;;;;;;;;;;19.03;65.47;101335.66;5066562;28;1698;-42
2021/11/23 09:08:58;;;;;;;;;;;;;;;19.01;66.63;101343.81;5059968;28;1700;-43
2021/11/23 09:11:24;;;;;;;;;;;;;;;18.99;66.11;101345.78;5063372;28;1831;-42
2021/11/23 09:14:01;;;;;;;;;;;;;;;19.05;65.46;101337.25;5070537;28;1593;-42
2021/11/23 09:16:33;;;;;;;;;;;;;;;19.07;66.48;101335.28;5065046;28;1834;-42
2021/11/23 09:19:00;;;;;;;;;;;;;;;19.10;65.75;101341.38;5064485;28;1568;-43
2021/11/23 09:21:33;;;;;;;;;;;;;;;19.14;65.83;101343.72;5067227;28;1714;-42
2021/11/23 09:24:00;;;;;;;;;;;;;;;19.18;65.32;101336.25;5065309;28;1982;-42
2021/11/23 09:26:35;;;;;;;;;;;;;;;19.19;65.74;101340.66;5070377;28;1755;-42
2021/11/23 09:29:06;;;;;;;;;;;;;;;19.21;66.01;101333.34;5070935;28;1638;-42
2021/11/23 09:34:24;;;;;;;;;;;;;;;19.23;66.04;101334.06;5068089;28;2486;-43
2021/11/23 09:36:59;;;;;;;;;;;;;;;19.23;64.94;101334.91;5072027;28;1602;-43
2021/11/23 09:39:25;;;;;;;;;;;;;;;19.21;65.71;101333.34;5068419;28;1644;-42
2021/11/23 09:41:55;;;;;;;;;;;;;;;19.35;64.66;101329.56;5062319;28;1822;-43
2021/11/23 09:44:26;;;;;;;;;;;;;;;19.39;65.39;101331.84;5069411;28;1977;-42
2021/11/23 09:46:54;;;;;;;;;;;;;;;19.35;65.45;101337.59;5067598;28;1775;-43
2021/11/23 09:49:24;;;;;;;;;;;;;;;19.31;65.26;101334.31;5058711;28;1751;-43
2021/11/23 09:52:00;;;;;;;;;;;;;;;19.24;66.11;101335.78;5063606;28;1468;-43
2021/11/23 09:54:27;;;;;;;;;;;;;;;19.27;66.13;101327.47;5065955;28;1575;-43
2021/11/23 09:56:58;;;;;;;;;;;;;;;19.26;65.89;101341.88;5053640;28;2072;-42
2021/11/23 09:59:25;;;;;;;;;;;;;;;19.33;65.67;101343.06;5066371;28;2208;-43
2021/11/23 10:02:01;;;;;;;;;;;;;;;19.41;66.12;101351.34;5058351;28;1571;-42
2021/11/23 10:04:41;;;;;;;;;;;;;;;19.44;66.51;101335.03;5065161;28;1961;-41
2021/11/23 10:07:13;;;;;;;;;;;;;;;19.51;66.53;101345.25;5062086;28;1701;-43
2021/11/23 10:09:46;;;;;;;;;;;;;;;19.45;66.40;101336.72;5065281;28;2025;-42
2021/11/23 10:12:17;;;;;;;;;;;;;;;19.46;66.07;101335.75;5061200;28;1435;-42
2021/11/23 10:15:01;;;;;;;;;;;;;;;19.54;66.75;101331.59;5060196;28;1814;-42
2021/11/23 10:17:36;;;;;;;;;;;;;;;19.59;65.34;101335.59;5068320;28;1910;-42
2021/11/23 10:20:03;;;;;;;;;;;;;;;19.52;65.93;101338.91;5070772;28;1854;-42
2021/11/23 10:22:50;;;;;;;;;;;;;;;19.47;66.19;101324.03;5068881;28;2149;-42
2021/11/23 10:25:17;;;;;;;;;;;;;;;19.42;66.18;101320.88;5070140;28;1642;-42
2021/11/23 10:27:44;;;;;;;;;;;;;;;19.53;66.60;101336.09;5068791;28;1520;-42
2021/11/23 10:30:11;;;;;;;;;;;;;;;19.72;66.04;101338.16;5070762;28;1675;-43
2021/11/23 10:32:45;;;;;;;;;;;;;;;19.73;65.93;101334.50;5063861;28;1595;-42
2021/11/23 10:35:16;;;;;;;;;;;;;;;19.66;65.68;101330.59;5064357;28;1466;-42
2021/11/23 10:37:46;;;;;;;;;;;;;;;19.66;66.09;101344.00;5069107;28;1766;-42
2021/11/23 10:40:14;;;;;;;;;;;;;;;19.62;65.78;101334.50;5065623;28;1441;-43
2021/11/23 10:43:03;;;;;;;;;;;;;;;19.64;66.16;101340.59;5070481;28;1683;-42
2021/11/23 10:45:41;;;;;;;;;;;;;;;19.65;66.13;101336.94;5058430;28;1518;-41
2021/11/23 10:48:09;;;;;;;;;;;;;;;19.61;65.27;101332.78;5063488;28;1421;-42
2021/11/23 10:50:37;;;;;;;;;;;;;;;19.57;65.47;101334.03;5065364;28;1671;-41
2021/11/23 10:53:08;;;;;;;;;;;;;;;19.52;65.84;101338.91;5067590;28;1871;-42
2021/11/23 10:55:36;;;;;;;;;;;;;;;19.46;65.68;101337.59;5073960;28;1883;-42
2021/11/23 10:58:08;;;;;;;;;;;;;;;19.45;65.56;101331.34;5073798;28;2034;-42
2021/11/23 11:00:48;;;;;;;;;;;;;;;19.45;65.50;101334.03;5061493;28;1652;-42
2021/11/23 11:03:19;;;;;;;;;;;;;;;19.49;65.23;101340.00;5057102;28;1967;-42
2021/11/23 11:05:47;;;;;;;;;;;;;;;19.46;65.51;101335.75;5074361;28;1802;-42
2021/11/23 11:08:27;;;;;;;;;;;;;;;19.48;65.38;101341.84;5073077;28;1547;-41
2021/11/23 11:10:54;;;;;;;;;;;;;;;19.48;66.40;101341.84;5073222;28;1677;-42
2021/11/23 11:13:29;;;;;;;;;;;;;;;19.53;66.37;101365.59;5059762;28;1789;-41
2021/11/23 11:16:06;;;;;;;;;;;;;;;19.60;65.94;101350.72;5071552;28;1943;-42
2021/11/23 11:18:32;;;;;;;;;;;;;;;19.54;65.03;101355.75;5065831;28;1555;-41
2021/11/23 11:21:03;;;;;;;;;;;;;;;19.58;64.73;101362.56;5069000;28;1621;-41
2021/11/23 11:23:41;;;;;;;;;;;;;;;19.59;64.91;101353.53;5067243;28;1905;-42
2021/11/23 11:26:23;;;;;;;;;;;;;;;19.63;65.45;101371.06;5068707;28;1644;-41
2021/11/23 11:28:51;;;;;;;;;;;;;;;19.63;64.25;101371.06;5063114;28;1838;-42
2021/11/23 11:31:32;;;;;;;;;;;;;;;19.56;64.57;101370.72;5069180;28;1739;-42
2021/11/23 11:34:24;;;;;;;;;;;;;;;19.55;65.04;101384.25;5067277;28;1682;-42
2021/11/23 11:36:59;;;;;;;;;;;;;;;19.56;64.37;101353.78;5050807;28;1615;-41
2021/11/23 11:39:54;;;;;;;;;;;;;;;19.55;64.98;101382.44;5060807;28;1657;-42
2021/11/23 11:42:39;;;;;;;;;;;;;;;19.59;65.08;101370.47;5063523;28;1573;-42
2021/11/23 11:45:13;;;;;;;;;;;;;;;19.63;64.97;101376.44;5066510;28;2065;-42
2021/11/23 11:47:41;;;;;;;;;;;;;;;19.65;62.87;101361.06;5066203;28;1624;-42
2021/11/23 11:50:24;;;;;;;;;;;;;;;19.61;63.27;101367.66;5065118;28;1462;-41
2021/11/23 11:53:10;;;;;;;;;;;;;;;19.65;64.05;101366.44;5063072;28;1945;-41
2021/11/23 11:55:47;;;;;;;;;;;;;;;19.64;64.58;101379.00;5067245;28;1535;-42
2021/11/23 11:58:16;;;;;;;;;;;;;;;19.62;64.63;101380.13;5066716;28;1826;-41
2021/11/23 12:00:43;;;;;;;;;;;;;;;19.69;64.58;101386.66;5061257;28;1569;-42
2021/11/23 12:03:27;;;;;;;;;;;;;;;19.71;63.53;101384.75;5068390;28;1583;-41
2021/11/23 12:06:01;;;;;;;;;;;;;;;19.67;63.81;101388.63;5071666;28;1549;-41
2021/11/23 12:08:37;;;;;;;;;;;;;;;19.68;63.32;101391.19;5071743;28;1739;-41
2021/11/23 12:11:12;;;;;;;;;;;;;;;19.69;64.71;101392.03;5066315;28;1560;-41
2021/11/23 12:14:00;;;;;;;;;;;;;;;19.68;64.11;101395.72;5066305;28;1812;-41
2021/11/23 12:16:37;;;;;;;;;;;;;;;19.74;64.41;101384.50;5065669;28;1515;-41
2021/11/23 12:19:25;;;;;;;;;;;;;;;19.74;64.16;101379.16;5069670;28;1419;-42
2021/11/23 12:21:56;;;;;;;;;;;;;;;19.71;64.62;101376.69;5064945;28;1704;-40
2021/11/23 12:24:38;;;;;;;;;;;;;;;19.68;64.50;101367.03;5058950;28;1930;-42
2021/11/23 12:27:14;;;;;;;;;;;;;;;19.72;64.88;101378.41;5071645;28;1445;-41
2021/11/23 12:29:42;;;;;;;;;;;;;;;19.67;63.74;101385.94;5070852;28;1758;-42
2021/11/23 12:32:17;;;;;;;;;;;;;;;19.77;64.70;101383.41;5063054;28;2196;-41
2021/11/23 12:34:49;;;;;;;;;;;;;;;19.92;63.46;101397.41;5061329;28;1750;-41
2021/11/23 12:37:15;;;;;;;;;;;;;;;19.96;63.47;101396.19;5071582;28;1744;-42
2021/11/23 12:39:45;;;;;;;;;;;;;;;20.02;63.39;101404.56;5057791;28;2000;-41
2021/11/23 12:42:16;;;;;;;;;;;;;;;20.15;63.18;101404.38;5063432;28;1707;-42
2021/11/23 12:44:47;;;;;;;;;;;;;;;19.80;64.68;101400.09;5070805;28;1987;-42
2021/11/23 12:47:35;;;;;;;;;;;;;;;19.45;65.56;101427.91;5065549;28;1657;-42
2021/11/23 12:50:10;;;;;;;;;;;;;;;19.25;65.09;101425.97;5070024;28;1750;-42
2021/11/23 12:52:39;;;;;;;;;;;;;;;19.24;65.20;101425.13;5057086;28;1655;-42
2021/11/23 12:55:17;;;;;;;;;;;;;;;19.13;65.36;101422.44;5062436;28;2071;-42
2021/11/23 12:58:02;;;;;;;;;;;;;;;19.08;66.15;101432.66;5059669;28;1450;-42
2021/11/23 13:00:52;;;;;;;;;;;;;;;19.15;65.42;101441.91;5070986;28;1692;-42
2021/11/23 13:03:22;;;;;;;;;;;;;;;18.88;66.54;101421.66;5062915;28;1780;-42
2021/11/23 13:05:54;;;;;;;;;;;;;;;18.87;66.53;101438.69;5064905;28;1969;-42
2021/11/23 13:08:21;;;;;;;;;;;;;;;18.91;66.33;101428.59;5069045;28;2019;-43
2021/11/23 13:10:53;;;;;;;;;;;;;;;18.85;67.27;101432.59;5071234;28;1787;-44